sensor_id;sensor_type;location;lat;lon;timestamp;pressure;altitude;pressure_sealevel;temperature;humidity
62895;BME280;49204;44.916;37.998;2023-03-16T00:00:36;100361.50;;;8.33;71.86
62895;BME280;49204;44.916;37.998;2023-03-16T00:03:04;100370.68;;;8.33;71.85
62895;BME280;49204;44.916;37.998;2023-03-16T00:05:33;100361.63;;;8.30;71.87
62895;BME280;49204;44.916;37.998;2023-03-16T00:08:02;100355.12;;;8.28;71.88
62895;BME280;49204;44.916;37.998;2023-03-16T00:10:30;100343.75;;;8.28;71.89
62895;BME280;49204;44.916;37.998;2023-03-16T00:12:59;100346.38;;;8.28;72.04
62895;BME280;49204;44.916;37.998;2023-03-16T00:15:29;100340.28;;;8.27;72.00
62895;BME280;49204;44.916;37.998;2023-03-16T00:17:57;100326.78;;;8.26;72.11
62895;BME280;49204;44.916;37.998;2023-03-16T00:20:26;100314.98;;;8.26;72.31
62895;BME280;49204;44.916;37.998;2023-03-16T00:22:54;100312.69;;;8.29;72.25
62895;BME280;49204;44.916;37.998;2023-03-16T00:25:23;100326.22;;;8.30;72.09
62895;BME280;49204;44.916;37.998;2023-03-16T00:27:52;100322.71;;;8.29;72.07
62895;BME280;49204;44.916;37.998;2023-03-16T00:30:20;100331.00;;;8.30;72.14
62895;BME280;49204;44.916;37.998;2023-03-16T00:32:49;100329.63;;;8.32;72.06
62895;BME280;49204;44.916;37.998;2023-03-16T00:35:19;100328.33;;;8.32;71.97
62895;BME280;49204;44.916;37.998;2023-03-16T00:37:48;100327.02;;;8.32;72.02
62895;BME280;49204;44.916;37.998;2023-03-16T00:40:18;100324.39;;;8.32;72.09
62895;BME280;49204;44.916;37.998;2023-03-16T00:42:46;100334.00;;;8.31;72.32
62895;BME280;49204;44.916;37.998;2023-03-16T00:45:15;100330.53;;;8.31;72.47
62895;BME280;49204;44.916;37.998;2023-03-16T00:47:44;100333.48;;;8.34;72.59
62895;BME280;49204;44.916;37.998;2023-03-16T00:50:13;100338.81;;;8.32;72.51
62895;BME280;49204;44.916;37.998;2023-03-16T00:52:42;100338.02;;;8.30;72.55
62895;BME280;49204;44.916;37.998;2023-03-16T00:55:11;100344.06;;;8.32;72.55
62895;BME280;49204;44.916;37.998;2023-03-16T00:57:40;100345.30;;;8.34;72.51
62895;BME280;49204;44.916;37.998;2023-03-16T01:00:09;100344.45;;;8.33;72.41
62895;BME280;49204;44.916;37.998;2023-03-16T01:02:43;100341.82;;;8.33;72.47
62895;BME280;49204;44.916;37.998;2023-03-16T01:05:15;100344.06;;;8.32;72.60
62895;BME280;49204;44.916;37.998;2023-03-16T01:07:44;100346.69;;;8.32;72.58
62895;BME280;49204;44.916;37.998;2023-03-16T01:10:14;100345.37;;;8.32;72.62
62895;BME280;49204;44.916;37.998;2023-03-16T01:12:43;100332.26;;;8.32;72.60
62895;BME280;49204;44.916;37.998;2023-03-16T01:15:12;100329.63;;;8.32;72.57
62895;BME280;49204;44.916;37.998;2023-03-16T01:17:41;100324.77;;;8.33;72.63
62895;BME280;49204;44.916;37.998;2023-03-16T01:20:10;100330.86;;;8.34;72.74
62895;BME280;49204;44.916;37.998;2023-03-16T01:22:39;100330.81;;;8.35;72.79
62895;BME280;49204;44.916;37.998;2023-03-16T01:25:10;100340.80;;;8.37;72.78
62895;BME280;49204;44.916;37.998;2023-03-16T01:27:41;100333.44;;;8.35;72.77
62895;BME280;49204;44.916;37.998;2023-03-16T01:30:11;100342.63;;;8.35;72.64
62895;BME280;49204;44.916;37.998;2023-03-16T01:32:40;100347.48;;;8.34;72.63
62895;BME280;49204;44.916;37.998;2023-03-16T01:35:09;100344.06;;;8.32;72.72
62895;BME280;49204;44.916;37.998;2023-03-16T01:37:38;100345.37;;;8.32;72.75
62895;BME280;49204;44.916;37.998;2023-03-16T01:40:10;100346.69;;;8.32;72.65
62895;BME280;49204;44.916;37.998;2023-03-16T01:42:44;100345.80;;;8.31;72.62
62895;BME280;49204;44.916;37.998;2023-03-16T01:48:21;100362.98;;;8.28;72.56
62895;BME280;49204;44.916;37.998;2023-03-16T01:50:53;100363.04;;;8.27;72.48
62895;BME280;49204;44.916;37.998;2023-03-16T01:53:24;100356.20;;;8.23;72.54
62895;BME280;49204;44.916;37.998;2023-03-16T01:55:53;100359.33;;;8.21;72.61
62895;BME280;49204;44.916;37.998;2023-03-16T01:58:22;100361.95;;;8.21;72.68
62895;BME280;49204;44.916;37.998;2023-03-16T02:00:50;100361.54;;;8.20;72.68
62895;BME280;49204;44.916;37.998;2023-03-16T02:03:21;100354.98;;;8.20;72.70
62895;BME280;49204;44.916;37.998;2023-03-16T02:06:11;100358.91;;;8.20;72.64
62895;BME280;49204;44.916;37.998;2023-03-16T02:08:44;100355.03;;;8.18;72.56
62895;BME280;49204;44.916;37.998;2023-03-16T02:11:15;100364.48;;;8.10;72.75
62895;BME280;49204;44.916;37.998;2023-03-16T02:13:54;100348.41;;;8.08;72.98
62895;BME280;49204;44.916;37.998;2023-03-16T02:16:25;100349.27;;;8.08;72.94
62895;BME280;49204;44.916;37.998;2023-03-16T02:18:54;100350.06;;;8.10;72.84
62895;BME280;49204;44.916;37.998;2023-03-16T02:21:28;100344.41;;;8.09;72.91
62895;BME280;49204;44.916;37.998;2023-03-16T02:23:55;100345.42;;;8.05;73.11
62895;BME280;49204;44.916;37.998;2023-03-16T02:32:10;100353.42;;;8.02;73.15
62895;BME280;49204;44.916;37.998;2023-03-16T02:34:40;100350.80;;;8.02;73.08
62895;BME280;49204;44.916;37.998;2023-03-16T02:37:11;100355.21;;;8.00;73.12
62895;BME280;49204;44.916;37.998;2023-03-16T02:39:40;100353.09;;;7.98;73.11
62895;BME280;49204;44.916;37.998;2023-03-16T02:42:13;100355.72;;;7.98;73.10
62895;BME280;49204;44.916;37.998;2023-03-16T02:44:46;100361.09;;;7.95;73.03
62895;BME280;49204;44.916;37.998;2023-03-16T02:47:41;100357.72;;;7.91;73.10
62895;BME280;49204;44.916;37.998;2023-03-16T02:50:12;100363.39;;;7.91;73.10
62895;BME280;49204;44.916;37.998;2023-03-16T02:52:41;100358.27;;;7.88;73.16
62895;BME280;49204;44.916;37.998;2023-03-16T02:55:10;100360.09;;;7.86;73.15
62895;BME280;49204;44.916;37.998;2023-03-16T02:57:39;100350.50;;;7.85;73.23
62895;BME280;49204;44.916;37.998;2023-03-16T03:00:10;100344.45;;;7.83;73.41
62895;BME280;49204;44.916;37.998;2023-03-16T03:02:40;100339.13;;;7.86;73.44
62895;BME280;49204;44.916;37.998;2023-03-16T03:05:11;100340.36;;;7.87;73.39
62895;BME280;49204;44.916;37.998;2023-03-16T03:07:40;100343.44;;;7.87;73.40
62895;BME280;49204;44.916;37.998;2023-03-16T03:10:10;100343.44;;;7.87;73.48
62895;BME280;49204;44.916;37.998;2023-03-16T03:12:38;100339.00;;;7.89;73.43
62895;BME280;49204;44.916;37.998;2023-03-16T03:15:09;100328.92;;;7.90;73.47
62895;BME280;49204;44.916;37.998;2023-03-16T03:17:39;100342.83;;;7.92;73.50
62895;BME280;49204;44.916;37.998;2023-03-16T03:20:11;100363.30;;;7.94;73.48
62895;BME280;49204;44.916;37.998;2023-03-16T03:22:48;100358.10;;;7.92;73.45
62895;BME280;49204;44.916;37.998;2023-03-16T03:25:20;100353.78;;;7.91;73.48
62895;BME280;49204;44.916;37.998;2023-03-16T03:27:51;100344.23;;;7.89;73.76
62895;BME280;49204;44.916;37.998;2023-03-16T03:30:23;100337.17;;;7.91;73.77
62895;BME280;49204;44.916;37.998;2023-03-16T03:32:52;100329.22;;;7.94;73.72
62895;BME280;49204;44.916;37.998;2023-03-16T03:35:21;100340.91;;;7.97;73.64
62895;BME280;49204;44.916;37.998;2023-03-16T03:37:50;100340.50;;;7.96;73.56
62895;BME280;49204;44.916;37.998;2023-03-16T03:40:20;100345.87;;;7.93;73.66
62895;BME280;49204;44.916;37.998;2023-03-16T03:42:50;100354.22;;;7.91;73.81
62895;BME280;49204;44.916;37.998;2023-03-16T03:45:19;100352.10;;;7.89;73.91
62895;BME280;49204;44.916;37.998;2023-03-16T03:47:48;100356.45;;;7.90;73.87
62895;BME280;49204;44.916;37.998;2023-03-16T03:50:19;100340.62;;;7.93;73.91
62895;BME280;49204;44.916;37.998;2023-03-16T03:52:55;100337.88;;;7.96;73.86
62895;BME280;49204;44.916;37.998;2023-03-16T03:55:25;100350.48;;;7.98;73.86
62895;BME280;49204;44.916;37.998;2023-03-16T03:57:54;100355.21;;;8.00;73.89
62895;BME280;49204;44.916;37.998;2023-03-16T04:00:22;100351.69;;;8.01;73.89
62895;BME280;49204;44.916;37.998;2023-03-16T04:02:51;100349.82;;;8.05;73.86
62895;BME280;49204;44.916;37.998;2023-03-16T04:05:21;100350.62;;;8.07;73.85
62895;BME280;49204;44.916;37.998;2023-03-16T04:07:52;100357.98;;;8.09;73.85
62895;BME280;49204;44.916;37.998;2023-03-16T04:10:25;100360.55;;;8.10;73.81
62895;BME280;49204;44.916;37.998;2023-03-16T04:12:56;100364.39;;;8.14;73.75
62895;BME280;49204;44.916;37.998;2023-03-16T04:15:27;100355.59;;;8.15;73.68
62895;BME280;49204;44.916;37.998;2023-03-16T04:18:00;100358.50;;;8.19;73.66
62895;BME280;49204;44.916;37.998;2023-03-16T04:20:30;100364.96;;;8.22;73.63
62895;BME280;49204;44.916;37.998;2023-03-16T04:22:59;100365.76;;;8.24;73.63
62895;BME280;49204;44.916;37.998;2023-03-16T04:25:28;100365.30;;;8.24;73.64
62895;BME280;49204;44.916;37.998;2023-03-16T04:27:58;100364.35;;;8.27;73.70
62895;BME280;49204;44.916;37.998;2023-03-16T04:30:28;100357.61;;;8.31;73.71
62895;BME280;49204;44.916;37.998;2023-03-16T04:32:58;100368.24;;;8.40;73.64
62895;BME280;49204;44.916;37.998;2023-03-16T04:35:27;100369.44;;;8.45;73.61
62895;BME280;49204;44.916;37.998;2023-03-16T04:37:56;100367.42;;;8.52;73.62
62895;BME280;49204;44.916;37.998;2023-03-16T04:40:26;100374.96;;;8.61;73.53
62895;BME280;49204;44.916;37.998;2023-03-16T04:42:58;100384.94;;;8.63;73.42
62895;BME280;49204;44.916;37.998;2023-03-16T04:45:27;100385.30;;;8.65;73.35
62895;BME280;49204;44.916;37.998;2023-03-16T04:47:56;100388.02;;;8.74;73.33
62895;BME280;49204;44.916;37.998;2023-03-16T04:50:25;100393.40;;;8.83;73.27
62895;BME280;49204;44.916;37.998;2023-03-16T04:52:54;100392.95;;;8.95;73.17
62895;BME280;49204;44.916;37.998;2023-03-16T04:55:23;100389.73;;;9.11;73.10
62895;BME280;49204;44.916;37.998;2023-03-16T04:57:52;100396.16;;;9.25;72.97
62895;BME280;49204;44.916;37.998;2023-03-16T05:00:21;100397.00;;;9.38;72.81
62895;BME280;49204;44.916;37.998;2023-03-16T05:02:51;100397.16;;;9.45;72.57
62895;BME280;49204;44.916;37.998;2023-03-16T05:05:22;100397.95;;;9.47;72.34
62895;BME280;49204;44.916;37.998;2023-03-16T05:07:51;100403.52;;;9.50;72.24
62895;BME280;49204;44.916;37.998;2023-03-16T05:10:20;100408.05;;;9.46;72.17
62895;BME280;49204;44.916;37.998;2023-03-16T05:12:48;100407.66;;;9.45;72.18
62895;BME280;49204;44.916;37.998;2023-03-16T05:15:18;100412.92;;;9.45;72.13
62895;BME280;49204;44.916;37.998;2023-03-16T05:17:49;100408.71;;;9.41;72.22
62895;BME280;49204;44.916;37.998;2023-03-16T05:20:18;100411.97;;;9.36;72.23
62895;BME280;49204;44.916;37.998;2023-03-16T05:22:50;100413.39;;;9.33;72.23
62895;BME280;49204;44.916;37.998;2023-03-16T05:25:20;100413.80;;;9.34;72.29
62895;BME280;49204;44.916;37.998;2023-03-16T05:27:51;100418.59;;;9.34;72.21
62895;BME280;49204;44.916;37.998;2023-03-16T05:30:31;100421.17;;;9.36;72.13
62895;BME280;49204;44.916;37.998;2023-03-16T05:33:01;100422.75;;;9.40;72.07
62895;BME280;49204;44.916;37.998;2023-03-16T05:35:30;100419.08;;;9.44;72.02
62895;BME280;49204;44.916;37.998;2023-03-16T05:38:00;100429.75;;;9.51;71.94
62895;BME280;49204;44.916;37.998;2023-03-16T05:40:29;100418.60;;;9.56;71.99
62895;BME280;49204;44.916;37.998;2023-03-16T05:43:01;100429.38;;;9.60;72.00
62895;BME280;49204;44.916;37.998;2023-03-16T05:45:31;100440.31;;;9.61;72.03
62895;BME280;49204;44.916;37.998;2023-03-16T05:48:02;100442.09;;;9.61;72.09
62895;BME280;49204;44.916;37.998;2023-03-16T05:50:33;100445.16;;;9.60;72.16
62895;BME280;49204;44.916;37.998;2023-03-16T05:53:01;100451.62;;;9.63;72.13
62895;BME280;49204;44.916;37.998;2023-03-16T05:55:30;100451.09;;;9.65;72.08
62895;BME280;49204;44.916;37.998;2023-03-16T05:58:00;100457.14;;;9.68;71.98
62895;BME280;49204;44.916;37.998;2023-03-16T06:00:29;100448.52;;;9.64;72.00
62895;BME280;49204;44.916;37.998;2023-03-16T06:03:02;100454.14;;;9.66;72.02
62895;BME280;49204;44.916;37.998;2023-03-16T06:05:32;100450.31;;;9.74;71.91
62895;BME280;49204;44.916;37.998;2023-03-16T06:08:01;100455.46;;;9.77;71.87
62895;BME280;49204;44.916;37.998;2023-03-16T06:10:31;100453.63;;;9.79;71.85
62895;BME280;49204;44.916;37.998;2023-03-16T06:13:00;100454.94;;;9.79;71.78
62895;BME280;49204;44.916;37.998;2023-03-16T06:15:28;100462.30;;;9.81;71.78
62895;BME280;49204;44.916;37.998;2023-03-16T06:17:58;100459.56;;;9.84;71.80
62895;BME280;49204;44.916;37.998;2023-03-16T06:20:27;100466.34;;;9.90;71.78
62895;BME280;49204;44.916;37.998;2023-03-16T06:22:56;100459.92;;;9.97;71.75
62895;BME280;49204;44.916;37.998;2023-03-16T06:25:26;100463.55;;;10.04;71.66
62895;BME280;49204;44.916;37.998;2023-03-16T06:27:55;100459.21;;;10.14;71.62
62895;BME280;49204;44.916;37.998;2023-03-16T06:30:24;100457.14;;;10.22;71.49
62895;BME280;49204;44.916;37.998;2023-03-16T06:32:53;100458.66;;;10.28;71.32
62895;BME280;49204;44.916;37.998;2023-03-16T06:35:22;100459.73;;;10.34;71.22
62895;BME280;49204;44.916;37.998;2023-03-16T06:37:52;100462.56;;;10.39;71.27
62895;BME280;49204;44.916;37.998;2023-03-16T06:40:26;100455.58;;;10.49;71.22
62895;BME280;49204;44.916;37.998;2023-03-16T06:42:55;100454.34;;;10.57;71.23
62895;BME280;49204;44.916;37.998;2023-03-16T06:45:24;100449.52;;;10.67;71.09
62895;BME280;49204;44.916;37.998;2023-03-16T06:47:55;100451.86;;;10.84;70.89
62895;BME280;49204;44.916;37.998;2023-03-16T06:50:24;100441.28;;;11.04;70.64
62895;BME280;49204;44.916;37.998;2023-03-16T06:52:52;100436.54;;;11.21;70.34
62895;BME280;49204;44.916;37.998;2023-03-16T06:55:21;100438.68;;;11.32;70.11
62895;BME280;49204;44.916;37.998;2023-03-16T06:57:50;100437.53;;;11.37;69.89
62895;BME280;49204;44.916;37.998;2023-03-16T07:00:19;100443.86;;;11.44;69.79
62895;BME280;49204;44.916;37.998;2023-03-16T07:02:48;100435.88;;;11.54;69.64
62895;BME280;49204;44.916;37.998;2023-03-16T07:05:17;100443.96;;;11.59;69.48
62895;BME280;49204;44.916;37.998;2023-03-16T07:07:46;100443.89;;;11.61;69.30
62895;BME280;49204;44.916;37.998;2023-03-16T07:10:16;100443.83;;;11.63;69.25
62895;BME280;49204;44.916;37.998;2023-03-16T07:12:46;100437.47;;;11.67;69.20
62895;BME280;49204;44.916;37.998;2023-03-16T07:15:14;100434.38;;;11.76;69.07
62895;BME280;49204;44.916;37.998;2023-03-16T07:17:43;100436.97;;;11.86;68.96
62895;BME280;49204;44.916;37.998;2023-03-16T07:20:12;100441.13;;;11.92;68.85
62895;BME280;49204;44.916;37.998;2023-03-16T07:22:42;100446.38;;;12.01;68.79
62895;BME280;49204;44.916;37.998;2023-03-16T07:25:12;100446.80;;;12.10;68.64
62895;BME280;49204;44.916;37.998;2023-03-16T07:27:42;100442.68;;;12.22;68.49
62895;BME280;49204;44.916;37.998;2023-03-16T07:30:13;100442.06;;;12.34;68.34
62895;BME280;49204;44.916;37.998;2023-03-16T07:32:43;100439.95;;;12.41;68.24
62895;BME280;49204;44.916;37.998;2023-03-16T07:35:12;100447.72;;;12.44;68.05
62895;BME280;49204;44.916;37.998;2023-03-16T07:37:41;100440.56;;;12.55;67.93
62895;BME280;49204;44.916;37.998;2023-03-16T07:40:10;100456.78;;;12.65;67.84
62895;BME280;49204;44.916;37.998;2023-03-16T07:42:40;100451.34;;;12.77;67.68
62895;BME280;49204;44.916;37.998;2023-03-16T07:45:11;100457.83;;;12.87;67.64
62895;BME280;49204;44.916;37.998;2023-03-16T07:47:41;100450.44;;;12.93;67.68
62895;BME280;49204;44.916;37.998;2023-03-16T07:50:11;100453.28;;;13.06;67.58
62895;BME280;49204;44.916;37.998;2023-03-16T07:52:43;100452.70;;;13.17;67.42
62895;BME280;49204;44.916;37.998;2023-03-16T07:55:13;100454.37;;;13.27;67.25
62895;BME280;49204;44.916;37.998;2023-03-16T07:57:43;100454.73;;;13.37;67.12
62895;BME280;49204;44.916;37.998;2023-03-16T08:00:14;100459.15;;;13.45;66.99
62895;BME280;49204;44.916;37.998;2023-03-16T08:02:43;100450.95;;;13.49;66.92
62895;BME280;49204;44.916;37.998;2023-03-16T08:05:13;100451.55;;;13.55;66.69
62895;BME280;49204;44.916;37.998;2023-03-16T08:07:44;100453.75;;;13.62;66.53
62895;BME280;49204;44.916;37.998;2023-03-16T08:10:14;100449.58;;;13.74;66.46
62895;BME280;49204;44.916;37.998;2023-03-16T08:12:47;100453.82;;;13.93;66.32
62895;BME280;49204;44.916;37.998;2023-03-16T08:15:16;100451.20;;;14.07;66.12
62895;BME280;49204;44.916;37.998;2023-03-16T08:17:46;100450.50;;;14.19;66.01
62895;BME280;49204;44.916;37.998;2023-03-16T08:20:19;100445.79;;;14.24;65.92
62895;BME280;49204;44.916;37.998;2023-03-16T08:22:48;100447.58;;;14.31;65.82
62895;BME280;49204;44.916;37.998;2023-03-16T08:25:19;100441.29;;;14.41;65.70
62895;BME280;49204;44.916;37.998;2023-03-16T08:27:50;100440.64;;;14.44;65.53
62895;BME280;49204;44.916;37.998;2023-03-16T08:30:19;100437.59;;;14.43;65.39
62895;BME280;49204;44.916;37.998;2023-03-16T08:32:50;100442.42;;;14.37;65.54
62895;BME280;49204;44.916;37.998;2023-03-16T08:35:19;100448.06;;;14.31;65.48
62895;BME280;49204;44.916;37.998;2023-03-16T08:37:48;100446.93;;;14.35;65.50
62895;BME280;49204;44.916;37.998;2023-03-16T08:40:17;100450.24;;;14.61;65.22
62895;BME280;49204;44.916;37.998;2023-03-16T08:42:48;100442.11;;;14.93;64.65
62895;BME280;49204;44.916;37.998;2023-03-16T08:45:18;100451.05;;;15.41;64.21
62895;BME280;49204;44.916;37.998;2023-03-16T08:47:47;100447.02;;;15.97;63.72
62895;BME280;49204;44.916;37.998;2023-03-16T08:50:17;100446.22;;;16.42;62.27
62895;BME280;49204;44.916;37.998;2023-03-16T08:52:46;100442.53;;;16.83;61.69
62895;BME280;49204;44.916;37.998;2023-03-16T08:55:19;100444.80;;;17.26;61.22
62895;BME280;49204;44.916;37.998;2023-03-16T08:57:47;100438.66;;;17.50;60.90
62895;BME280;49204;44.916;37.998;2023-03-16T09:00:16;100452.71;;;17.33;61.09
62895;BME280;49204;44.916;37.998;2023-03-16T09:02:46;100446.85;;;16.91;61.01
62895;BME280;49204;44.916;37.998;2023-03-16T09:05:15;100452.72;;;16.51;61.47
62895;BME280;49204;44.916;37.998;2023-03-16T09:07:44;100445.75;;;16.23;61.70
62895;BME280;49204;44.916;37.998;2023-03-16T09:10:13;100458.94;;;16.04;62.14
62895;BME280;49204;44.916;37.998;2023-03-16T09:12:43;100457.78;;;15.88;62.02
62895;BME280;49204;44.916;37.998;2023-03-16T09:15:12;100456.16;;;15.86;62.28
62895;BME280;49204;44.916;37.998;2023-03-16T09:17:41;100458.37;;;15.86;61.96
62895;BME280;49204;44.916;37.998;2023-03-16T09:20:12;100458.31;;;15.93;61.99
62895;BME280;49204;44.916;37.998;2023-03-16T09:22:42;100452.88;;;16.02;61.00
62895;BME280;49204;44.916;37.998;2023-03-16T09:25:10;100456.66;;;16.05;60.89
62895;BME280;49204;44.916;37.998;2023-03-16T09:27:39;100447.95;;;16.23;60.93
62895;BME280;49204;44.916;37.998;2023-03-16T09:30:10;100448.16;;;16.66;60.90
62895;BME280;49204;44.916;37.998;2023-03-16T09:32:39;100437.19;;;17.09;60.04
62895;BME280;49204;44.916;37.998;2023-03-16T09:35:08;100432.30;;;17.77;59.38
62895;BME280;49204;44.916;37.998;2023-03-16T09:37:38;100435.43;;;18.30;58.41
62895;BME280;49204;44.916;37.998;2023-03-16T09:40:19;100437.00;;;19.13;57.25
62895;BME280;49204;44.916;37.998;2023-03-16T09:42:43;100435.75;;;19.89;55.62
62895;BME280;49204;44.916;37.998;2023-03-16T09:45:35;100430.24;;;20.23;53.66
62895;BME280;49204;44.916;37.998;2023-03-16T09:48:05;100430.97;;;20.67;53.09
62895;BME280;49204;44.916;37.998;2023-03-16T09:50:38;100423.34;;;21.49;52.26
62895;BME280;49204;44.916;37.998;2023-03-16T09:53:24;100418.08;;;22.31;51.65
62895;BME280;49204;44.916;37.998;2023-03-16T09:55:57;100425.25;;;22.41;49.62
62895;BME280;49204;44.916;37.998;2023-03-16T09:58:24;100423.47;;;22.55;48.86
62895;BME280;49204;44.916;37.998;2023-03-16T10:06:44;100430.30;;;22.01;45.77
62895;BME280;49204;44.916;37.998;2023-03-16T10:09:20;100411.02;;;21.37;46.39
62895;BME280;49204;44.916;37.998;2023-03-16T10:11:48;100428.66;;;20.83;46.42
62895;BME280;49204;44.916;37.998;2023-03-16T10:17:34;100432.16;;;20.27;46.04
62895;BME280;49204;44.916;37.998;2023-03-16T10:20:06;100429.25;;;20.09;46.91
62895;BME280;49204;44.916;37.998;2023-03-16T10:22:37;100445.16;;;20.31;46.18
62895;BME280;49204;44.916;37.998;2023-03-16T10:25:17;100439.38;;;20.99;46.68
62895;BME280;49204;44.916;37.998;2023-03-16T10:27:45;100439.80;;;21.60;46.64
62895;BME280;49204;44.916;37.998;2023-03-16T10:30:21;100435.65;;;22.10;46.11
62895;BME280;49204;44.916;37.998;2023-03-16T10:32:49;100428.41;;;22.60;45.94
62895;BME280;49204;44.916;37.998;2023-03-16T10:38:08;100416.89;;;23.74;45.10
62895;BME280;49204;44.916;37.998;2023-03-16T10:40:38;100405.04;;;24.21;43.84
62895;BME280;49204;44.916;37.998;2023-03-16T10:43:12;100400.41;;;23.87;42.55
62895;BME280;49204;44.916;37.998;2023-03-16T10:45:42;100403.40;;;23.52;42.33
62895;BME280;49204;44.916;37.998;2023-03-16T10:48:19;100387.00;;;23.27;42.64
62895;BME280;49204;44.916;37.998;2023-03-16T10:50:50;100387.53;;;23.13;43.00
62895;BME280;49204;44.916;37.998;2023-03-16T10:53:25;100394.48;;;22.96;43.43
62895;BME280;49204;44.916;37.998;2023-03-16T10:56:00;100395.98;;;22.67;43.37
62895;BME280;49204;44.916;37.998;2023-03-16T10:58:31;100405.36;;;22.43;44.00
62895;BME280;49204;44.916;37.998;2023-03-16T11:01:00;100411.98;;;22.49;44.52
62895;BME280;49204;44.916;37.998;2023-03-16T11:03:40;100409.63;;;22.50;44.68
62895;BME280;49204;44.916;37.998;2023-03-16T11:06:18;100406.63;;;22.63;44.83
62895;BME280;49204;44.916;37.998;2023-03-16T11:08:47;100416.06;;;22.77;44.84
62895;BME280;49204;44.916;37.998;2023-03-16T11:11:30;100407.02;;;23.15;44.77
62895;BME280;49204;44.916;37.998;2023-03-16T11:14:02;100404.31;;;23.29;43.33
62895;BME280;49204;44.916;37.998;2023-03-16T11:19:16;100411.75;;;22.80;43.68
62895;BME280;49204;44.916;37.998;2023-03-16T11:25:08;100416.64;;;21.34;44.52
62895;BME280;49204;44.916;37.998;2023-03-16T11:30:18;100433.60;;;20.73;46.14
62895;BME280;49204;44.916;37.998;2023-03-16T11:32:48;100424.33;;;20.56;46.59
62895;BME280;49204;44.916;37.998;2023-03-16T11:36:09;100425.83;;;20.33;46.86
62895;BME280;49204;44.916;37.998;2023-03-16T11:40:56;100440.48;;;19.91;47.77
62895;BME280;49204;44.916;37.998;2023-03-16T11:43:48;100432.08;;;19.52;47.99
62895;BME280;49204;44.916;37.998;2023-03-16T11:49:05;100449.54;;;18.60;48.63
62895;BME280;49204;44.916;37.998;2023-03-16T11:51:41;100461.69;;;18.23;49.25
62895;BME280;49204;44.916;37.998;2023-03-16T11:57:06;100473.05;;;17.90;50.18
62895;BME280;49204;44.916;37.998;2023-03-16T12:02:43;100464.40;;;17.25;51.07
62895;BME280;49204;44.916;37.998;2023-03-16T12:05:38;100474.48;;;17.02;51.54
62895;BME280;49204;44.916;37.998;2023-03-16T12:11:04;100482.08;;;16.75;52.42
62895;BME280;49204;44.916;37.998;2023-03-16T12:13:47;100492.47;;;16.65;52.74
62895;BME280;49204;44.916;37.998;2023-03-16T12:16:15;100487.37;;;16.49;53.01
62895;BME280;49204;44.916;37.998;2023-03-16T12:18:54;100480.87;;;16.20;53.61
62895;BME280;49204;44.916;37.998;2023-03-16T12:21:28;100496.50;;;16.05;54.00
62895;BME280;49204;44.916;37.998;2023-03-16T12:24:03;100504.01;;;15.98;54.32
62895;BME280;49204;44.916;37.998;2023-03-16T12:26:37;100511.13;;;15.98;54.45
62895;BME280;49204;44.916;37.998;2023-03-16T12:34:21;100507.77;;;15.81;55.06
62895;BME280;49204;44.916;37.998;2023-03-16T12:45:03;100520.39;;;15.49;55.99
62895;BME280;49204;44.916;37.998;2023-03-16T12:47:46;100519.77;;;15.38;56.43
62895;BME280;49204;44.916;37.998;2023-03-16T12:50:12;100530.65;;;15.27;56.60
62895;BME280;49204;44.916;37.998;2023-03-16T12:52:44;100515.39;;;15.16;56.85
62895;BME280;49204;44.916;37.998;2023-03-16T12:55:25;100519.28;;;15.10;57.06
62895;BME280;49204;44.916;37.998;2023-03-16T12:58:07;100518.25;;;15.05;57.29
62895;BME280;49204;44.916;37.998;2023-03-16T13:00:38;100523.73;;;15.02;57.41
62895;BME280;49204;44.916;37.998;2023-03-16T13:03:15;100525.63;;;15.00;57.67
62895;BME280;49204;44.916;37.998;2023-03-16T13:05:53;100524.84;;;14.84;57.87
62895;BME280;49204;44.916;37.998;2023-03-16T13:08:22;100512.06;;;14.76;58.07
62895;BME280;49204;44.916;37.998;2023-03-16T13:11:02;100520.83;;;14.62;58.38
62895;BME280;49204;44.916;37.998;2023-03-16T13:13:32;100520.12;;;14.52;58.76
62895;BME280;49204;44.916;37.998;2023-03-16T13:16:09;100526.73;;;14.44;59.00
62895;BME280;49204;44.916;37.998;2023-03-16T13:18:42;100516.98;;;14.45;59.08
62895;BME280;49204;44.916;37.998;2023-03-16T13:21:19;100523.70;;;14.20;59.83
62895;BME280;49204;44.916;37.998;2023-03-16T13:29:28;100517.87;;;14.06;60.46
62895;BME280;49204;44.916;37.998;2023-03-16T13:32:07;100513.13;;;14.04;60.57
62895;BME280;49204;44.916;37.998;2023-03-16T13:34:50;100524.77;;;14.09;60.50
62895;BME280;49204;44.916;37.998;2023-03-16T13:37:14;100525.84;;;14.14;60.60
62895;BME280;49204;44.916;37.998;2023-03-16T13:39:55;100528.02;;;14.14;60.73
62895;BME280;49204;44.916;37.998;2023-03-16T13:42:29;100528.97;;;14.13;60.74
62895;BME280;49204;44.916;37.998;2023-03-16T13:45:13;100538.23;;;14.13;60.74
62895;BME280;49204;44.916;37.998;2023-03-16T13:47:42;100541.81;;;14.12;60.72
62895;BME280;49204;44.916;37.998;2023-03-16T13:50:13;100539.33;;;14.09;60.67
62895;BME280;49204;44.916;37.998;2023-03-16T13:52:42;100537.80;;;14.05;60.79
62895;BME280;49204;44.916;37.998;2023-03-16T13:55:17;100530.18;;;13.92;61.03
62895;BME280;49204;44.916;37.998;2023-03-16T13:57:47;100542.81;;;13.86;61.01
62895;BME280;49204;44.916;37.998;2023-03-16T14:00:25;100545.25;;;13.82;61.14
62895;BME280;49204;44.916;37.998;2023-03-16T14:02:56;100543.33;;;13.77;61.40
62895;BME280;49204;44.916;37.998;2023-03-16T14:05:28;100534.02;;;13.70;61.54
62895;BME280;49204;44.916;37.998;2023-03-16T14:07:57;100535.13;;;13.66;61.71